Guernewood, California
Current Conditions -  °F | °C
As of 8:26 AM on Thursday 29 Jan 2015 (Local Time) from KSTS Reporting Station
Moderate Fog Moderate Fog  
Wind Chill: 43°   Ceiling: 100
Heat Index: 43°   Visibility: 0.5mi
Dew Point: 43°   Wind: 0mph
Humidity: 100%   Direction: NA
Pressure: 30.16"   Gusts: NA
Location:  38.5329°N, 123.009°W
Report Text: KSTS 291626Z 00000KT 1/2SM FG OVC001 06/06 A3016 RMK AO2
Loading
Personal Weather Stations






























Interactive Weather Map New forecast layout! Learn more

10-Day Weather Forecast

Advertisements
Track Severe Weather on mobile